Time;durP1;ratioP1;P1;durP2;ratioP2;P2;SDS_P1;SDS_P2;PMS_P1;PMS_P2;Temp;Humidity;BMP_temperature;BMP_pressure;BME280_temperature;BME280_humidity;BME280_pressure;Samples;Min_cycle;Max_cycle;Signal;HPM_P1;HPM_P2
2022/10/01 00:00:50;;;;;;;8.23;5.67;;;12.30;99.90;;;;;;5036111;28;20206;-69
2022/10/01 00:03:16;;;;;;;5.77;5.07;;;12.30;99.90;;;;;;5036745;28;20300;-69
2022/10/01 00:05:42;;;;;;;5.90;5.20;;;12.30;99.90;;;;;;5035837;28;20268;-68
2022/10/01 00:08:08;;;;;;;7.23;5.20;;;12.30;99.90;;;;;;5054399;28;20208;-69
2022/10/01 00:10:37;;;;;;;8.93;5.13;;;12.30;99.90;;;;;;5055856;28;20686;-68
2022/10/01 00:13:03;;;;;;;6.53;5.40;;;12.40;99.90;;;;;;5056171;28;20175;-69
2022/10/01 00:15:29;;;;;;;6.43;5.47;;;12.40;99.90;;;;;;5056061;28;20182;-69
2022/10/01 00:17:54;;;;;;;7.33;5.37;;;12.40;99.90;;;;;;5055826;28;20676;-69
2022/10/01 00:20:20;;;;;;;5.93;5.33;;;12.40;99.90;;;;;;5055818;28;20206;-69
2022/10/01 00:22:46;;;;;;;6.80;5.23;;;12.40;99.90;;;;;;5055882;28;20704;-69
2022/10/01 00:25:12;;;;;;;6.37;5.60;;;12.40;99.90;;;;;;5055619;28;20217;-68
2022/10/01 00:27:38;;;;;;;6.97;5.10;;;12.40;99.90;;;;;;5051982;28;20210;-68
2022/10/01 00:30:05;;;;;;;6.60;5.30;;;12.40;99.90;;;;;;5036242;28;20253;-69
2022/10/01 00:32:32;;;;;;;7.27;4.90;;;12.50;99.90;;;;;;5034475;28;20210;-69
2022/10/01 00:34:59;;;;;;;5.20;4.70;;;12.40;99.90;;;;;;5035766;28;20179;-69
2022/10/01 00:37:25;;;;;;;9.03;5.63;;;12.40;99.90;;;;;;5047906;28;20183;-69
2022/10/01 00:39:51;;;;;;;6.43;4.97;;;12.40;99.90;;;;;;5055920;28;20643;-69
2022/10/01 00:42:29;;;;;;;7.90;5.40;;;12.40;99.90;;;;;;5055423;28;20228;-69
2022/10/01 00:44:55;;;;;;;6.67;4.80;;;12.50;99.90;;;;;;5053997;28;20190;-69
2022/10/01 00:47:26;;;;;;;6.53;5.03;;;12.50;99.90;;;;;;5055279;28;20174;-69
2022/10/01 00:50:02;;;;;;;6.10;5.03;;;12.40;99.90;;;;;;5055408;28;20195;-69
2022/10/01 00:52:31;;;;;;;5.93;5.00;;;12.40;99.90;;;;;;5054027;28;20635;-69
2022/10/01 00:55:19;;;;;;;5.97;5.30;;;12.40;99.90;;;;;;5055166;28;20174;-68
2022/10/01 00:57:46;;;;;;;7.03;4.77;;;12.40;99.90;;;;;;5050171;28;20221;-69
2022/10/01 01:00:13;;;;;;;4.97;4.47;;;12.40;99.90;;;;;;5034815;28;20203;-68
2022/10/01 01:02:40;;;;;;;10.43;5.10;;;12.30;99.90;;;;;;5034863;28;20175;-69
2022/10/01 01:05:07;;;;;;;7.47;5.10;;;12.30;99.90;;;;;;5034919;28;20178;-69
2022/10/01 01:07:35;;;;;;;5.23;4.73;;;12.30;99.90;;;;;;5048367;28;20182;-69
2022/10/01 01:10:02;;;;;;;5.10;4.67;;;12.30;99.90;;;;;;5054766;28;20273;-69
2022/10/01 01:12:35;;;;;;;5.93;5.07;;;12.30;99.90;;;;;;5054869;28;20269;-69
2022/10/01 01:15:19;;;;;;;6.93;4.70;;;12.30;99.90;;;;;;5054723;28;20166;-69
2022/10/01 01:18:00;;;;;;;5.33;4.83;;;12.20;99.90;;;;;;5053400;28;20257;-69
2022/10/01 01:20:47;;;;;;;7.97;4.90;;;12.20;99.90;;;;;;5053150;28;20209;-69
2022/10/01 01:23:16;;;;;;;5.80;4.57;;;12.20;99.90;;;;;;5053324;28;20167;-69
2022/10/01 01:25:52;;;;;;;6.77;4.90;;;12.20;99.90;;;;;;5054495;28;20214;-69
2022/10/01 01:28:58;;;;;;;4.90;4.40;;;12.20;99.90;;;;;;5044051;28;20282;-69
2022/10/01 01:31:32;;;;;;;5.43;4.83;;;12.20;99.90;;;;;;4993186;28;20200;-69
2022/10/01 01:33:59;;;;;;;6.87;4.87;;;12.10;99.90;;;;;;5025994;28;20199;-69
2022/10/01 01:36:34;;;;;;;6.30;4.97;;;12.10;99.90;;;;;;5037267;28;20212;-69
2022/10/01 01:39:04;;;;;;;7.03;5.40;;;12.00;99.90;;;;;;5054371;28;20224;-69
2022/10/01 01:41:35;;;;;;;5.40;4.90;;;11.80;99.90;;;;;;5052670;28;20233;-69
2022/10/01 01:44:05;;;;;;;6.57;5.50;;;11.70;99.90;;;;;;5052991;28;20185;-68
2022/10/01 01:46:36;;;;;;;5.97;5.30;;;11.60;99.90;;;;;;5054054;28;20201;-69
2022/10/01 01:49:04;;;;;;;8.20;5.67;;;11.40;99.90;;;;;;5054530;28;20197;-68
2022/10/01 01:51:51;;;;;;;7.67;5.73;;;11.30;99.90;;;;;;5053429;28;20194;-68
2022/10/01 01:54:18;;;;;;;6.90;5.87;;;11.20;99.90;;;;;;5054022;28;20179;-68
2022/10/01 01:56:45;;;;;;;8.43;5.97;;;11.10;99.90;;;;;;5052904;28;20182;-68
2022/10/01 01:59:12;;;;;;;6.77;5.87;;;11.00;99.90;;;;;;5036622;28;20575;-69
2022/10/01 02:01:39;;;;;;;9.33;5.90;;;10.90;99.90;;;;;;5034389;28;20203;-69
2022/10/01 02:04:30;;;;;;;12.43;6.20;;;10.90;99.90;;;;;;5034483;28;20179;-68
2022/10/01 02:07:23;;;;;;;9.73;6.50;;;10.90;99.90;;;;;;5042424;28;20264;-68
2022/10/01 02:10:10;;;;;;;7.67;5.87;;;10.80;99.90;;;;;;5054228;28;20202;-68
2022/10/01 02:12:55;;;;;;;7.83;6.07;;;10.70;99.90;;;;;;5053514;28;20178;-68
2022/10/01 02:15:34;;;;;;;9.70;6.27;;;10.70;99.90;;;;;;5053706;28;20178;-68
2022/10/01 02:18:06;;;;;;;6.13;5.40;;;10.70;99.90;;;;;;5053748;28;20163;-68
2022/10/01 02:20:42;;;;;;;6.53;5.80;;;10.60;99.90;;;;;;5053441;28;20203;-68
2022/10/01 02:23:22;;;;;;;7.83;5.80;;;10.60;99.90;;;;;;5052379;28;20223;-68
2022/10/01 02:25:55;;;;;;;7.67;5.70;;;10.60;99.90;;;;;;5053909;28;20198;-68
2022/10/01 02:28:22;;;;;;;6.73;5.80;;;10.50;99.90;;;;;;5044320;28;20179;-68
2022/10/01 02:30:50;;;;;;;8.33;6.13;;;10.50;99.90;;;;;;5032244;28;20629;-68
2022/10/01 02:33:22;;;;;;;9.97;6.33;;;10.40;99.90;;;;;;5034228;28;20565;-68
2022/10/01 02:35:49;;;;;;;9.13;6.20;;;10.40;99.90;;;;;;5032256;28;20186;-69
2022/10/01 02:38:17;;;;;;;8.53;6.33;;;10.40;99.90;;;;;;5052630;28;20217;-68
2022/10/01 02:40:45;;;;;;;9.33;5.70;;;10.40;99.90;;;;;;5053483;28;20198;-69
2022/10/01 02:43:31;;;;;;;6.90;6.20;;;10.40;99.90;;;;;;5053958;28;20206;-68
2022/10/01 02:46:04;;;;;;;6.23;5.27;;;10.40;99.90;;;;;;5052678;28;20213;-68
2022/10/01 02:48:30;;;;;;;8.43;5.53;;;10.40;99.90;;;;;;5053953;28;20171;-69
2022/10/01 02:51:12;;;;;;;8.17;5.27;;;10.40;99.90;;;;;;5054572;28;20198;-69
2022/10/01 02:53:43;;;;;;;5.67;5.07;;;10.50;99.90;;;;;;5054102;28;20162;-68
2022/10/01 02:56:10;;;;;;;6.80;5.60;;;10.40;99.90;;;;;;5053985;28;20169;-68
2022/10/01 02:58:36;;;;;;;5.40;4.97;;;10.40;99.90;;;;;;5040256;28;20202;-68
2022/10/01 03:01:02;;;;;;;7.90;4.93;;;10.40;99.90;;;;;;5033296;28;20207;-68
2022/10/01 03:03:29;;;;;;;5.43;4.93;;;10.40;99.90;;;;;;5033942;28;20667;-68
2022/10/01 03:05:55;;;;;;;6.00;5.40;;;10.40;99.90;;;;;;5035863;28;20260;-68
2022/10/01 03:08:22;;;;;;;6.70;5.07;;;10.40;99.90;;;;;;5037225;28;20187;-68
2022/10/01 03:10:49;;;;;;;7.53;5.07;;;10.40;99.90;;;;;;5036049;28;20353;-68
2022/10/01 03:13:16;;;;;;;6.50;5.33;;;10.40;99.90;;;;;;5037353;28;20180;-67
2022/10/01 03:15:45;;;;;;;5.87;5.23;;;10.30;99.90;;;;;;5036101;28;20719;-68
2022/10/01 03:18:10;;;;;;;8.63;5.53;;;10.20;99.90;;;;;;5035833;28;20187;-68
2022/10/01 03:20:36;;;;;;;5.70;5.20;;;10.20;99.90;;;;;;5037087;28;20204;-68
2022/10/01 03:23:02;;;;;;;7.10;5.83;;;10.20;99.90;;;;;;5037064;28;20179;-68
2022/10/01 03:25:28;;;;;;;6.40;5.80;;;10.20;99.90;;;;;;5036846;28;20206;-70
2022/10/01 03:27:53;;;;;;;7.13;5.67;;;10.10;99.90;;;;;;5036897;28;20183;-69
2022/10/01 03:30:20;;;;;;;8.23;5.70;;;10.00;99.90;;;;;;5036801;28;20202;-69
2022/10/01 03:32:46;;;;;;;8.23;6.03;;;10.00;99.90;;;;;;5035546;28;20175;-69
2022/10/01 03:35:11;;;;;;;6.77;5.73;;;10.00;99.90;;;;;;5036795;28;20175;-69
2022/10/01 03:37:37;;;;;;;6.47;5.83;;;10.00;99.90;;;;;;5050597;28;20183;-69
2022/10/01 03:40:03;;;;;;;6.83;5.30;;;10.00;99.90;;;;;;5055197;28;20209;-69
2022/10/01 03:42:29;;;;;;;6.53;5.50;;;9.90;99.90;;;;;;5056123;28;20514;-69
2022/10/01 03:44:55;;;;;;;8.37;5.83;;;9.90;99.90;;;;;;5056494;28;20189;-68
2022/10/01 03:47:23;;;;;;;6.50;5.90;;;9.90;99.90;;;;;;5056394;28;20202;-69
2022/10/01 03:49:49;;;;;;;8.50;6.20;;;9.90;99.90;;;;;;5054962;28;20289;-69
2022/10/01 03:52:15;;;;;;;6.20;5.60;;;9.90;99.90;;;;;;5056347;28;20320;-69
2022/10/01 03:54:40;;;;;;;6.70;6.10;;;9.90;99.90;;;;;;5056180;28;20705;-68
2022/10/01 03:57:06;;;;;;;6.30;5.70;;;9.80;99.90;;;;;;5056322;28;20174;-68
2022/10/01 03:59:32;;;;;;;10.70;6.30;;;9.90;99.90;;;;;;5035468;28;20560;-68
2022/10/01 04:01:57;;;;;;;10.90;6.53;;;9.80;99.90;;;;;;5036263;28;20180;-69
2022/10/01 04:04:23;;;;;;;8.30;6.37;;;9.80;99.90;;;;;;5034777;28;20543;-69
2022/10/01 04:06:49;;;;;;;6.87;6.17;;;9.80;99.90;;;;;;5042103;28;20214;-68
2022/10/01 04:09:14;;;;;;;9.10;6.53;;;9.80;99.90;;;;;;5056326;28;20579;-68
2022/10/01 04:11:40;;;;;;;6.47;5.50;;;9.80;99.90;;;;;;5054463;28;20206;-68
2022/10/01 04:14:06;;;;;;;7.03;6.03;;;9.80;99.90;;;;;;5055717;28;20262;-69
2022/10/01 04:16:34;;;;;;;8.03;6.63;;;9.80;99.90;;;;;;5055902;28;20174;-70
2022/10/01 04:19:01;;;;;;;8.23;6.30;;;9.80;99.90;;;;;;5054516;28;20583;-69
2022/10/01 04:21:27;;;;;;;8.37;6.30;;;9.80;99.90;;;;;;5054303;28;20706;-68
2022/10/01 04:23:53;;;;;;;6.83;6.13;;;9.80;99.90;;;;;;5056003;28;20587;-69
2022/10/01 04:26:19;;;;;;;6.90;6.20;;;9.80;99.90;;;;;;5055882;28;20198;-69
2022/10/01 04:28:45;;;;;;;6.70;6.00;;;9.80;99.90;;;;;;5043319;28;20183;-68
2022/10/01 04:31:24;;;;;;;7.73;6.30;;;9.80;99.90;;;;;;5036275;28;20191;-69
2022/10/01 04:33:55;;;;;;;9.63;6.20;;;9.80;99.90;;;;;;5035075;28;20257;-69
2022/10/01 04:36:22;;;;;;;6.70;6.00;;;9.80;99.90;;;;;;5039294;28;20279;-69
2022/10/01 04:38:50;;;;;;;6.27;5.67;;;9.80;99.90;;;;;;5054333;28;20651;-69
2022/10/01 04:41:16;;;;;;;5.67;5.13;;;9.80;99.90;;;;;;5054218;28;20206;-70
2022/10/01 04:43:42;;;;;;;6.00;5.40;;;9.80;99.90;;;;;;5055480;28;20320;-69
2022/10/01 04:46:08;;;;;;;6.17;5.57;;;9.80;99.90;;;;;;5055049;28;20225;-69
2022/10/01 04:48:33;;;;;;;6.20;5.10;;;9.80;99.90;;;;;;5055647;28;20294;-69
2022/10/01 04:50:59;;;;;;;5.13;4.73;;;9.80;99.90;;;;;;5055106;28;20194;-70
2022/10/01 04:53:25;;;;;;;4.53;4.20;;;9.80;99.90;;;;;;5055492;28;20163;-69
2022/10/01 04:55:50;;;;;;;5.13;4.63;;;9.90;99.90;;;;;;5055383;28;20175;-70
2022/10/01 04:58:17;;;;;;;5.13;4.63;;;9.90;99.90;;;;;;5044670;28;20187;-69
2022/10/01 05:00:43;;;;;;;4.90;4.50;;;9.90;99.90;;;;;;5035289;28;20294;-69
2022/10/01 05:03:09;;;;;;;7.70;4.73;;;9.90;99.90;;;;;;5035350;28;20207;-69
2022/10/01 05:05:36;;;;;;;5.00;4.60;;;9.90;99.90;;;;;;5033531;28;20581;-70
2022/10/01 05:08:02;;;;;;;5.53;5.03;;;9.90;99.90;;;;;;5050866;28;20193;-70
2022/10/01 05:10:28;;;;;;;5.27;4.50;;;9.90;99.90;;;;;;5055171;28;20218;-69
2022/10/01 05:12:53;;;;;;;5.73;5.00;;;9.90;99.90;;;;;;5055418;28;20225;-69
2022/10/01 05:15:20;;;;;;;5.03;4.60;;;9.90;99.90;;;;;;5053649;28;20182;-70
2022/10/01 05:17:46;;;;;;;6.57;4.47;;;9.90;99.90;;;;;;5054813;28;20270;-69
2022/10/01 05:20:20;;;;;;;5.17;4.67;;;9.90;99.90;;;;;;5054972;28;20194;-69
2022/10/01 05:22:48;;;;;;;5.07;4.60;;;10.00;99.90;;;;;;5054640;28;20184;-70
2022/10/01 05:25:14;;;;;;;4.57;4.17;;;10.00;99.90;;;;;;5052598;28;20223;-70
2022/10/01 05:27:40;;;;;;;4.80;4.40;;;10.00;99.90;;;;;;5050391;28;20183;-70
2022/10/01 05:30:11;;;;;;;6.50;4.20;;;10.00;99.90;;;;;;5034991;28;20203;-70
2022/10/01 05:32:37;;;;;;;5.03;4.20;;;10.00;99.90;;;;;;5034560;28;20163;-70
2022/10/01 05:35:05;;;;;;;4.87;4.47;;;10.00;99.90;;;;;;5034489;28;20658;-70
2022/10/01 05:37:30;;;;;;;5.13;4.73;;;10.10;99.90;;;;;;5047320;28;20205;-70
2022/10/01 05:39:56;;;;;;;6.03;4.50;;;10.10;99.90;;;;;;5054373;28;20218;-70
2022/10/01 05:42:22;;;;;;;5.83;4.30;;;10.20;99.90;;;;;;5052798;28;20174;-70
2022/10/01 05:44:48;;;;;;;4.30;3.90;;;10.20;99.90;;;;;;5054136;28;20272;-70
2022/10/01 05:47:15;;;;;;;4.13;3.80;;;10.20;99.90;;;;;;5054192;28;20571;-70
2022/10/01 05:49:43;;;;;;;4.30;4.00;;;10.30;99.90;;;;;;5054459;28;20261;-70
2022/10/01 05:52:13;;;;;;;4.00;3.70;;;10.30;99.90;;;;;;5054048;28;20209;-70
2022/10/01 05:54:40;;;;;;;4.20;3.80;;;10.30;99.90;;;;;;5053957;28;20174;-70
2022/10/01 05:57:07;;;;;;;4.87;4.37;;;10.30;99.90;;;;;;5054273;28;20174;-70
2022/10/01 05:59:34;;;;;;;4.20;3.80;;;10.40;99.90;;;;;;5033196;28;20701;-70
2022/10/01 06:02:00;;;;;;;4.83;3.70;;;10.40;99.90;;;;;;5034499;28;20529;-71
2022/10/01 06:04:26;;;;;;;3.90;3.60;;;10.40;99.90;;;;;;5034447;28;20667;-67
2022/10/01 06:06:55;;;;;;;4.20;3.80;;;10.40;99.90;;;;;;5040033;28;20206;-69
2022/10/01 06:09:21;;;;;;;4.43;3.30;;;10.40;99.90;;;;;;5052808;28;20584;-70
2022/10/01 06:11:47;;;;;;;3.50;3.20;;;10.50;99.90;;;;;;5054198;28;20277;-70
2022/10/01 06:14:14;;;;;;;3.80;3.50;;;10.50;99.90;;;;;;5052442;28;20228;-69
2022/10/01 06:16:39;;;;;;;3.30;3.10;;;10.50;99.90;;;;;;5054069;28;20223;-71
2022/10/01 06:19:05;;;;;;;3.60;3.30;;;10.50;99.90;;;;;;5054030;28;20567;-70
2022/10/01 06:21:31;;;;;;;3.70;3.03;;;10.50;99.90;;;;;;5053359;28;20538;-70
2022/10/01 06:23:56;;;;;;;3.10;2.90;;;10.50;99.90;;;;;;5053572;28;20170;-70
2022/10/01 06:26:23;;;;;;;3.03;2.93;;;10.40;99.90;;;;;;5053210;28;20267;-70
2022/10/01 06:28:49;;;;;;;3.20;3.00;;;10.50;99.90;;;;;;5040047;28;20178;-70
2022/10/01 06:31:16;;;;;;;3.00;2.80;;;10.50;99.90;;;;;;5033506;28;20664;-70
2022/10/01 06:33:42;;;;;;;2.80;2.70;;;10.50;99.90;;;;;;5033811;28;20594;-70
2022/10/01 06:36:08;;;;;;;3.13;2.93;;;10.60;99.90;;;;;;5034958;28;20202;-70
2022/10/01 06:38:34;;;;;;;3.00;2.80;;;10.60;99.90;;;;;;5053230;28;20171;-70
2022/10/01 06:41:02;;;;;;;2.80;2.70;;;10.50;99.90;;;;;;5053356;28;20603;-70
2022/10/01 06:43:30;;;;;;;3.10;2.90;;;10.50;99.90;;;;;;5052063;28;20178;-70
2022/10/01 06:45:59;;;;;;;2.80;2.70;;;10.50;99.90;;;;;;5053129;28;20206;-70
2022/10/01 06:48:25;;;;;;;3.10;2.90;;;10.50;99.90;;;;;;5053250;28;20178;-70
2022/10/01 06:50:51;;;;;;;3.03;2.83;;;10.50;99.90;;;;;;5051878;28;20573;-70
2022/10/01 06:53:17;;;;;;;2.80;2.70;;;10.50;99.90;;;;;;5053710;28;20166;-70
2022/10/01 06:55:44;;;;;;;2.87;2.67;;;10.50;99.90;;;;;;5053454;28;20537;-70
2022/10/01 06:58:15;;;;;;;2.77;2.67;;;10.50;99.90;;;;;;5045322;28;20190;-70
2022/10/01 07:00:42;;;;;;;2.67;2.57;;;10.50;99.90;;;;;;5032218;28;20567;-70
2022/10/01 07:03:12;;;;;;;3.27;3.00;;;10.50;99.90;;;;;;5032024;28;20183;-70
2022/10/01 07:05:39;;;;;;;2.70;2.57;;;10.50;99.90;;;;;;5031957;28;20207;-70
2022/10/01 07:08:06;;;;;;;2.87;2.77;;;10.60;99.90;;;;;;5051090;28;20608;-70
2022/10/01 07:10:33;;;;;;;3.57;2.57;;;10.50;99.90;;;;;;5053543;28;20556;-70
2022/10/01 07:13:17;;;;;;;3.37;2.63;;;10.50;99.90;;;;;;5053390;28;20685;-70
2022/10/01 07:15:44;;;;;;;2.97;2.77;;;10.60;99.90;;;;;;5053348;28;20166;-70
2022/10/01 07:18:10;;;;;;;2.87;2.77;;;10.60;99.90;;;;;;5051598;28;20212;-70
2022/10/01 07:20:39;;;;;;;3.00;2.80;;;10.60;99.90;;;;;;5051690;28;20232;-70
2022/10/01 07:23:07;;;;;;;3.63;3.33;;;10.60;99.90;;;;;;5053052;28;20182;-70
2022/10/01 07:25:33;;;;;;;2.93;2.73;;;10.60;99.90;;;;;;5051502;28;20202;-70
2022/10/01 07:28:03;;;;;;;2.90;2.80;;;10.60;99.90;;;;;;5046523;28;20245;-70
2022/10/01 07:30:29;;;;;;;3.40;2.80;;;10.60;99.90;;;;;;5033145;28;20191;-70
2022/10/01 07:32:55;;;;;;;3.30;3.10;;;10.70;99.90;;;;;;5033264;28;20203;-70
2022/10/01 07:35:21;;;;;;;3.27;3.10;;;10.70;99.90;;;;;;5031528;28;20207;-71
2022/10/01 07:37:48;;;;;;;3.10;2.90;;;10.70;99.90;;;;;;5046999;28;20189;-70
2022/10/01 07:40:15;;;;;;;3.43;3.23;;;10.70;99.90;;;;;;5052723;28;20194;-70
2022/10/01 07:42:42;;;;;;;3.40;3.20;;;10.80;99.90;;;;;;5053220;28;20166;-70
2022/10/01 07:45:08;;;;;;;3.43;3.20;;;10.80;99.90;;;;;;5052597;28;20218;-70
2022/10/01 07:47:34;;;;;;;3.70;3.40;;;10.80;99.90;;;;;;5051315;28;20210;-70
2022/10/01 07:50:00;;;;;;;3.93;3.57;;;10.80;99.90;;;;;;5053767;28;20191;-70
2022/10/01 07:52:26;;;;;;;3.50;3.30;;;10.80;99.90;;;;;;5056296;28;20213;-70
2022/10/01 07:54:51;;;;;;;3.67;3.37;;;10.80;99.90;;;;;;5056280;28;20170;-70
2022/10/01 07:57:17;;;;;;;4.00;3.70;;;10.80;99.90;;;;;;5054119;28;20179;-70
2022/10/01 07:59:43;;;;;;;4.17;3.77;;;10.80;99.90;;;;;;5036700;28;20175;-69
2022/10/01 08:02:16;;;;;;;4.17;3.87;;;10.90;99.90;;;;;;5034732;28;20183;-70
2022/10/01 08:07:27;;;;;;;5.27;4.23;;;10.90;99.90;;;;;;5048433;28;20683;-70
2022/10/01 08:09:52;;;;;;;5.40;4.90;;;10.90;99.90;;;;;;5056249;28;20219;-70
2022/10/01 08:12:18;;;;;;;5.47;4.97;;;11.00;99.90;;;;;;5056206;28;20174;-70
2022/10/01 08:14:46;;;;;;;6.47;5.87;;;11.00;99.90;;;;;;5054719;28;20166;-70
2022/10/01 08:17:12;;;;;;;5.70;5.23;;;11.00;99.90;;;;;;5054591;28;20693;-70
2022/10/01 08:19:39;;;;;;;6.60;6.00;;;11.10;99.90;;;;;;5055618;28;20163;-69
2022/10/01 08:22:06;;;;;;;7.37;5.77;;;11.10;99.90;;;;;;5055716;28;20632;-70
2022/10/01 08:24:33;;;;;;;6.87;6.17;;;11.10;99.90;;;;;;5055726;28;20247;-70
2022/10/01 08:26:59;;;;;;;6.97;5.87;;;11.10;99.90;;;;;;5055687;28;20198;-70
2022/10/01 08:29:25;;;;;;;6.57;5.97;;;11.10;99.90;;;;;;5037325;28;20179;-70
2022/10/01 08:31:51;;;;;;;7.03;6.30;;;11.20;99.90;;;;;;5035625;28;20569;-70
2022/10/01 08:34:17;;;;;;;7.70;6.93;;;11.20;99.90;;;;;;5035927;28;20199;-70
2022/10/01 08:36:43;;;;;;;7.93;6.77;;;11.30;99.90;;;;;;5040505;28;20190;-70
2022/10/01 08:39:10;;;;;;;7.60;6.80;;;11.40;99.90;;;;;;5055364;28;20179;-70
2022/10/01 08:41:42;;;;;;;8.87;7.37;;;11.40;99.90;;;;;;5053904;28;20202;-70
2022/10/01 08:44:22;;;;;;;8.63;7.63;;;11.50;99.90;;;;;;5054529;28;20224;-71
2022/10/01 08:46:49;;;;;;;9.27;7.70;;;11.60;99.90;;;;;;5054399;28;20201;-71
2022/10/01 08:49:19;;;;;;;10.20;8.50;;;11.60;99.90;;;;;;5055795;28;20172;-70
2022/10/01 08:51:54;;;;;;;11.87;8.13;;;11.70;99.90;;;;;;5055204;28;20217;-70
2022/10/01 08:54:41;;;;;;;10.37;8.37;;;11.70;99.90;;;;;;5055803;28;20158;-70
2022/10/01 08:57:17;;;;;;;10.00;8.53;;;11.80;99.90;;;;;;5055987;28;20623;-71
2022/10/01 08:59:46;;;;;;;8.73;7.83;;;11.80;99.90;;;;;;5015644;28;20179;-70
2022/10/01 09:02:28;;;;;;;10.43;8.10;;;11.90;99.90;;;;;;5015069;28;20167;-70
2022/10/01 09:04:56;;;;;;;8.67;7.30;;;11.80;99.90;;;;;;5014238;28;20180;-70
2022/10/01 09:07:47;;;;;;;8.27;7.47;;;11.90;99.90;;;;;;5015823;28;20200;-70
2022/10/01 09:10:29;;;;;;;8.50;7.20;;;12.00;99.90;;;;;;5015334;28;20188;-70
2022/10/01 09:13:05;;;;;;;7.80;7.03;;;12.00;99.90;;;;;;5015262;28;20192;-70
2022/10/01 09:15:52;;;;;;;7.70;6.90;;;12.00;99.90;;;;;;5015102;28;20152;-70
2022/10/01 09:18:37;;;;;;;8.40;7.10;;;12.10;99.90;;;;;;5015000;28;20179;-70
2022/10/01 09:21:15;;;;;;;7.57;6.70;;;12.10;99.90;;;;;;5014906;28;20268;-70
2022/10/01 09:23:53;;;;;;;9.30;7.30;;;12.20;99.90;;;;;;5015566;28;20180;-70
2022/10/01 09:26:19;;;;;;;8.93;7.63;;;12.30;99.90;;;;;;5014820;28;20191;-70
2022/10/01 09:28:49;;;;;;;8.87;7.97;;;12.30;99.90;;;;;;5026278;28;20701;-70
2022/10/01 09:31:26;;;;;;;8.83;7.87;;;12.40;99.90;;;;;;5033228;28;20565;-70
2022/10/01 09:34:08;;;;;;;9.67;8.40;;;12.40;99.90;;;;;;5033412;28;20191;-70
2022/10/01 09:36:40;;;;;;;12.97;8.77;;;12.40;99.90;;;;;;5039583;28;20190;-70
2022/10/01 09:39:22;;;;;;;12.03;8.97;;;12.50;99.90;;;;;;5054296;28;20177;-70
2022/10/01 09:41:48;;;;;;;9.80;8.67;;;12.50;99.90;;;;;;5054372;28;20198;-70
2022/10/01 09:44:26;;;;;;;10.27;9.20;;;12.60;99.90;;;;;;5054953;28;20600;-70
2022/10/01 09:46:52;;;;;;;12.97;10.07;;;12.60;99.90;;;;;;5052855;28;20209;-70
2022/10/01 09:49:42;;;;;;;10.83;8.60;;;12.70;99.90;;;;;;5054230;28;20264;-70
2022/10/01 09:52:25;;;;;;;12.60;9.23;;;12.90;99.90;;;;;;5052789;28;20182;-70
2022/10/01 09:55:01;;;;;;;11.37;9.70;;;12.90;99.90;;;;;;5052717;28;20171;-70
2022/10/01 09:57:35;;;;;;;10.25;9.02;;;13.00;99.90;;;;;;5052453;28;20171;-70
2022/10/01 10:00:09;;;;;;;12.20;10.10;;;13.00;99.90;;;;;;5033960;28;20249;-70
2022/10/01 10:02:48;;;;;;;12.18;9.57;;;13.00;99.90;;;;;;5034283;28;20190;-70
2022/10/01 10:05:25;;;;;;;11.13;9.95;;;13.00;99.90;;;;;;5033828;28;20587;-70
2022/10/01 10:07:54;;;;;;;10.75;8.68;;;13.10;99.90;;;;;;5049682;28;20193;-70
2022/10/01 10:10:23;;;;;;;10.77;9.18;;;13.10;99.90;;;;;;5053815;28;20194;-73
2022/10/01 10:12:56;;;;;;;11.87;9.57;;;13.10;99.90;;;;;;5053643;28;20536;-73
2022/10/01 10:15:25;;;;;;;11.00;9.87;;;13.10;99.90;;;;;;5053946;28;20239;-72
2022/10/01 10:17:52;;;;;;;10.43;9.33;;;13.20;99.90;;;;;;5053887;28;20170;-73
2022/10/01 10:20:38;;;;;;;12.32;9.07;;;13.20;99.90;;;;;;5053651;28;20202;-73
2022/10/01 10:23:19;;;;;;;13.90;9.68;;;13.20;99.90;;;;;;5052436;28;20187;-70
2022/10/01 10:26:02;;;;;;;11.43;8.98;;;13.20;99.90;;;;;;5052729;28;20564;-70
2022/10/01 10:28:39;;;;;;;11.00;9.80;;;13.20;99.90;;;;;;5044459;28;20183;-73
2022/10/01 10:31:19;;;;;;;14.82;9.75;;;13.10;99.90;;;;;;5034888;28;20190;-72
2022/10/01 10:33:50;;;;;;;12.30;10.88;;;13.10;99.90;;;;;;5035267;28;20184;-72
2022/10/01 10:36:18;;;;;;;12.82;11.38;;;13.00;99.90;;;;;;5036965;28;20199;-72
2022/10/01 10:38:48;;;;;;;12.27;10.70;;;13.00;99.90;;;;;;5054972;28;20170;-72
2022/10/01 10:41:18;;;;;;;12.70;10.48;;;12.90;99.90;;;;;;5053573;28;20190;-69
2022/10/01 10:43:50;;;;;;;15.88;10.88;;;12.80;99.90;;;;;;5053640;28;20177;-70
2022/10/01 10:46:30;;;;;;;12.73;9.77;;;12.80;99.90;;;;;;5053529;28;20301;-69
2022/10/01 10:49:03;;;;;;;10.77;9.07;;;12.80;99.90;;;;;;5053936;28;20151;-69
2022/10/01 10:51:41;;;;;;;12.13;9.43;;;12.80;99.90;;;;;;5053356;28;20198;-69
2022/10/01 10:54:18;;;;;;;11.70;10.50;;;12.80;99.90;;;;;;5054021;28;20663;-68
2022/10/01 10:57:02;;;;;;;11.07;8.15;;;12.90;99.90;;;;;;5053614;28;20170;-68
2022/10/01 10:59:32;;;;;;;11.80;9.32;;;13.10;99.90;;;;;;5034718;28;20190;-68
2022/10/01 11:02:00;;;;;;;11.95;8.60;;;13.10;99.90;;;;;;5033976;28;20163;-68
2022/10/01 11:04:37;;;;;;;9.73;8.18;;;13.20;99.90;;;;;;5033270;28;20186;-68
2022/10/01 11:07:03;;;;;;;11.65;8.45;;;13.30;99.90;;;;;;5042055;28;20283;-68
2022/10/01 11:09:43;;;;;;;10.27;7.93;;;13.50;99.90;;;;;;5053103;28;20745;-68
2022/10/01 11:12:24;;;;;;;12.35;8.30;;;13.80;99.90;;;;;;5053366;28;20501;-68
2022/10/01 11:15:06;;;;;;;10.63;8.65;;;14.10;99.90;;;;;;5053036;28;20269;-68
2022/10/01 11:17:56;;;;;;;11.00;7.80;;;14.30;99.90;;;;;;5051679;28;20269;-68
2022/10/01 11:20:22;;;;;;;13.27;8.40;;;14.30;99.90;;;;;;5051590;28;20202;-68
2022/10/01 11:23:19;;;;;;;11.15;8.18;;;14.30;99.90;;;;;;5053055;28;20542;-68
2022/10/01 11:26:08;;;;;;;10.25;8.00;;;14.40;99.90;;;;;;5055396;28;20199;-69
2022/10/01 11:28:49;;;;;;;8.80;7.47;;;14.40;99.90;;;;;;5045572;28;20179;-69
2022/10/01 11:31:28;;;;;;;10.82;7.55;;;14.80;99.90;;;;;;5036843;28;20190;-69
2022/10/01 11:34:18;;;;;;;9.35;5.70;;;14.90;99.90;;;;;;5035552;28;20552;-68
2022/10/01 11:36:54;;;;;;;7.18;4.43;;;15.00;99.90;;;;;;5043065;28;20189;-69
2022/10/01 11:39:24;;;;;;;4.38;3.55;;;15.20;99.90;;;;;;5056613;28;20158;-68
2022/10/01 11:41:57;;;;;;;8.57;3.83;;;15.10;99.90;;;;;;5056364;28;20200;-68
2022/10/01 11:44:52;;;;;;;4.22;3.38;;;15.10;99.90;;;;;;5056707;28;20174;-69
2022/10/01 11:47:22;;;;;;;5.32;3.60;;;14.90;99.90;;;;;;5047294;28;20214;-68
2022/10/01 11:50:27;;;;;;;5.75;3.50;;;14.80;99.90;;;;;;5056456;28;20174;-68
2022/10/01 11:53:05;;;;;;;6.65;4.03;;;14.80;99.90;;;;;;4998477;28;20230;-69
2022/10/01 11:58:56;;;;;;;5.75;4.53;;;14.90;99.90;;;;;;5036125;28;20202;-68
2022/10/01 12:01:45;;;;;;;8.20;5.50;;;15.00;99.90;;;;;;5036392;28;20187;-68
2022/10/01 12:04:40;;;;;;;7.85;4.70;;;15.10;99.90;;;;;;5036371;28;20186;-68
2022/10/01 12:07:42;;;;;;;11.48;5.03;;;15.10;99.90;;;;;;5044256;28;20252;-69
2022/10/01 12:10:37;;;;;;;7.18;4.22;;;15.00;99.90;;;;;;5055078;28;20212;-69
2022/10/01 12:13:15;;;;;;;8.18;4.20;;;15.20;99.90;;;;;;5056070;28;20277;-69
2022/10/01 12:15:46;;;;;;;8.85;4.53;;;15.60;99.90;;;;;;5054874;28;20174;-68
2022/10/01 12:18:38;;;;;;;12.07;4.05;;;15.80;99.90;;;;;;5056241;28;20174;-69
2022/10/01 12:21:19;;;;;;;12.43;4.85;;;16.10;99.90;;;;;;5055743;28;20197;-68
2022/10/01 12:23:56;;;;;;;9.43;4.30;;;16.10;99.90;;;;;;5054615;28;20631;-69
2022/10/01 12:26:36;;;;;;;7.30;3.55;;;16.10;99.90;;;;;;5056333;28;20235;-68
2022/10/01 12:29:11;;;;;;;12.32;4.10;;;15.90;99.90;;;;;;5040704;28;20183;-69
2022/10/01 12:31:42;;;;;;;10.30;4.00;;;15.60;99.90;;;;;;5035825;28;20213;-68
2022/10/01 12:34:17;;;;;;;6.13;3.70;;;15.30;99.90;;;;;;5036136;28;20632;-68
2022/10/01 12:36:52;;;;;;;11.82;4.45;;;15.20;99.90;;;;;;5041747;28;20217;-67
2022/10/01 12:39:36;;;;;;;9.43;4.22;;;14.80;99.90;;;;;;5055493;28;20186;-68
2022/10/01 12:42:16;;;;;;;6.03;4.00;;;14.40;99.90;;;;;;5055979;28;20511;-68
2022/10/01 12:44:50;;;;;;;8.98;4.50;;;14.00;99.90;;;;;;5055419;28;20213;-68
2022/10/01 12:47:37;;;;;;;7.72;4.50;;;13.70;99.90;;;;;;5056284;28;20526;-68
2022/10/01 12:50:38;;;;;;;8.25;5.03;;;13.60;99.90;;;;;;5055880;28;20208;-68
2022/10/01 12:53:40;;;;;;;7.20;4.95;;;13.80;99.90;;;;;;5052796;28;20190;-68
2022/10/01 12:56:16;;;;;;;12.07;5.65;;;14.20;99.90;;;;;;5053997;28;20554;-68
2022/10/01 12:59:05;;;;;;;12.73;6.07;;;14.70;99.90;;;;;;5042927;28;20697;-69
2022/10/01 13:01:46;;;;;;;10.88;5.28;;;15.10;99.90;;;;;;5015184;28;20580;-69
2022/10/01 13:04:33;;;;;;;11.57;6.07;;;15.50;99.90;;;;;;5034035;28;20193;-69
2022/10/01 13:07:13;;;;;;;10.95;5.93;;;15.70;99.90;;;;;;5042017;28;20239;-68
2022/10/01 13:10:00;;;;;;;13.05;5.95;;;15.70;99.90;;;;;;5054978;28;20518;-68
2022/10/01 13:12:57;;;;;;;13.35;5.65;;;16.00;99.90;;;;;;5055012;28;20212;-68
2022/10/01 13:15:30;;;;;;;10.27;5.85;;;15.90;99.90;;;;;;5054867;28;20710;-68